sensor_id;sensor_type;location;lat;lon;timestamp;pressure;altitude;pressure_sealevel;temperature;humidity
78144;BME280;67394;52.522;13.622;2023-04-27T00:00:30;101196.97;;;6.04;67.24
78144;BME280;67394;52.522;13.622;2023-04-27T00:02:56;101195.44;;;6.10;67.13
78144;BME280;67394;52.522;13.622;2023-04-27T00:05:23;101200.44;;;6.07;67.50
78144;BME280;67394;52.522;13.622;2023-04-27T00:07:49;101194.44;;;6.04;67.66
78144;BME280;67394;52.522;13.622;2023-04-27T00:10:15;101192.03;;;6.10;67.16
78144;BME280;67394;52.522;13.622;2023-04-27T00:12:42;101191.03;;;6.05;66.54
78144;BME280;67394;52.522;13.622;2023-04-27T00:15:09;101182.59;;;6.06;67.21
78144;BME280;67394;52.522;13.622;2023-04-27T00:17:35;101193.53;;;6.02;66.99
78144;BME280;67394;52.522;13.622;2023-04-27T00:20:02;101193.72;;;6.09;66.57
78144;BME280;67394;52.522;13.622;2023-04-27T00:22:28;101185.09;;;6.04;66.91
78144;BME280;67394;52.522;13.622;2023-04-27T00:24:54;101189.59;;;6.13;65.91
78144;BME280;67394;52.522;13.622;2023-04-27T00:27:20;101196.91;;;6.01;67.07
78144;BME280;67394;52.522;13.622;2023-04-27T00:29:47;101183.50;;;6.08;66.70
78144;BME280;67394;52.522;13.622;2023-04-27T00:32:13;101183.41;;;6.03;66.01
78144;BME280;67394;52.522;13.622;2023-04-27T00:34:39;101189.41;;;6.07;66.37
78144;BME280;67394;52.522;13.622;2023-04-27T00:37:06;101187.78;;;6.09;65.63
78144;BME280;67394;52.522;13.622;2023-04-27T00:39:33;101190.22;;;6.06;65.47
78144;BME280;67394;52.522;13.622;2023-04-27T00:41:59;101203.13;;;6.12;64.76
78144;BME280;67394;52.522;13.622;2023-04-27T00:44:26;101195.25;;;6.03;65.56
78144;BME280;67394;52.522;13.622;2023-04-27T00:46:53;101196.13;;;6.05;65.66
78144;BME280;67394;52.522;13.622;2023-04-27T00:49:20;101196.06;;;6.02;66.13
78144;BME280;67394;52.522;13.622;2023-04-27T00:51:47;101198.63;;;6.02;65.87
78144;BME280;67394;52.522;13.622;2023-04-27T00:54:18;101203.84;;;6.08;65.09
78144;BME280;67394;52.522;13.622;2023-04-27T00:56:49;101201.16;;;6.02;65.77
78144;BME280;67394;52.522;13.622;2023-04-27T00:59:17;101199.53;;;6.05;65.99
78144;BME280;67394;52.522;13.622;2023-04-27T01:01:44;101201.97;;;6.01;65.97
78144;BME280;67394;52.522;13.622;2023-04-27T01:04:11;101206.94;;;5.96;65.64
78144;BME280;67394;52.522;13.622;2023-04-27T01:06:38;101209.47;;;5.96;65.83
78144;BME280;67394;52.522;13.622;2023-04-27T01:09:04;101206.88;;;5.93;65.99
78144;BME280;67394;52.522;13.622;2023-04-27T01:11:32;101210.97;;;5.88;66.44
78144;BME280;67394;52.522;13.622;2023-04-27T01:14:02;101209.53;;;5.98;65.96
78144;BME280;67394;52.522;13.622;2023-04-27T01:16:30;101214.38;;;5.88;65.56
78144;BME280;67394;52.522;13.622;2023-04-27T01:18:56;101210.06;;;5.87;65.63
78144;BME280;67394;52.522;13.622;2023-04-27T01:21:23;101216.19;;;5.94;65.21
78144;BME280;67394;52.522;13.622;2023-04-27T01:23:49;101207.88;;;6.00;64.99
78144;BME280;67394;52.522;13.622;2023-04-27T01:26:15;101210.28;;;5.95;65.95
78144;BME280;67394;52.522;13.622;2023-04-27T01:28:42;101211.09;;;5.93;66.15
78144;BME280;67394;52.522;13.622;2023-04-27T01:31:11;101217.69;;;5.87;65.94
78144;BME280;67394;52.522;13.622;2023-04-27T01:33:38;101218.34;;;5.80;66.42
78144;BME280;67394;52.522;13.622;2023-04-27T01:36:06;101213.22;;;5.79;66.12
78144;BME280;67394;52.522;13.622;2023-04-27T01:38:33;101224.25;;;5.79;66.53
78144;BME280;67394;52.522;13.622;2023-04-27T01:40:59;101220.09;;;5.83;65.89
78144;BME280;67394;52.522;13.622;2023-04-27T01:43:28;101223.50;;;5.83;66.15
78144;BME280;67394;52.522;13.622;2023-04-27T01:45:55;101227.63;;;5.78;66.46
78144;BME280;67394;52.522;13.622;2023-04-27T01:48:21;101236.84;;;5.75;66.57
78144;BME280;67394;52.522;13.622;2023-04-27T01:50:48;101231.75;;;5.75;65.99
78144;BME280;67394;52.522;13.622;2023-04-27T01:53:14;101232.50;;;5.72;66.42
78144;BME280;67394;52.522;13.622;2023-04-27T01:55:40;101232.50;;;5.72;65.89
78144;BME280;67394;52.522;13.622;2023-04-27T01:58:06;101241.66;;;5.66;66.55
78144;BME280;67394;52.522;13.622;2023-04-27T02:00:33;101235.91;;;5.73;65.91
78144;BME280;67394;52.522;13.622;2023-04-27T02:02:59;101236.53;;;5.64;66.49
78144;BME280;67394;52.522;13.622;2023-04-27T02:05:26;101238.41;;;5.70;66.14
78144;BME280;67394;52.522;13.622;2023-04-27T02:07:52;101240.78;;;5.65;65.56
78144;BME280;67394;52.522;13.622;2023-04-27T02:10:18;101240.06;;;5.69;65.89
78144;BME280;67394;52.522;13.622;2023-04-27T02:12:45;101242.53;;;5.66;65.72
78144;BME280;67394;52.522;13.622;2023-04-27T02:15:11;101247.44;;;5.60;65.79
78144;BME280;67394;52.522;13.622;2023-04-27T02:17:37;101246.69;;;5.64;65.81
78144;BME280;67394;52.522;13.622;2023-04-27T02:20:05;101252.59;;;5.63;66.52
78144;BME280;67394;52.522;13.622;2023-04-27T02:22:31;101251.06;;;5.68;66.47
78144;BME280;67394;52.522;13.622;2023-04-27T02:25:00;101255.09;;;5.62;66.45
78144;BME280;67394;52.522;13.622;2023-04-27T02:27:27;101253.09;;;5.51;66.71
78144;BME280;67394;52.522;13.622;2023-04-27T02:29:54;101263.31;;;5.53;66.92
78144;BME280;67394;52.522;13.622;2023-04-27T02:32:21;101258.28;;;5.55;67.41
78144;BME280;67394;52.522;13.622;2023-04-27T02:34:47;101257.25;;;5.48;67.74
78144;BME280;67394;52.522;13.622;2023-04-27T02:37:14;101264.06;;;5.49;67.11
78144;BME280;67394;52.522;13.622;2023-04-27T02:39:40;101268.28;;;5.48;67.63
78144;BME280;67394;52.522;13.622;2023-04-27T02:42:06;101262.22;;;5.45;68.17
78144;BME280;67394;52.522;13.622;2023-04-27T02:44:32;101264.72;;;5.43;68.76
78144;BME280;67394;52.522;13.622;2023-04-27T02:46:59;101264.50;;;5.36;68.36
78144;BME280;67394;52.522;13.622;2023-04-27T02:49:25;101269.72;;;5.40;68.78
78144;BME280;67394;52.522;13.622;2023-04-27T02:51:52;101273.75;;;5.34;68.98
78144;BME280;67394;52.522;13.622;2023-04-27T02:54:18;101266.28;;;5.38;68.94
78144;BME280;67394;52.522;13.622;2023-04-27T02:56:44;101268.88;;;5.40;68.64
78144;BME280;67394;52.522;13.622;2023-04-27T02:59:10;101267.22;;;5.42;68.62
78144;BME280;67394;52.522;13.622;2023-04-27T03:01:37;101268.03;;;5.41;69.35
78144;BME280;67394;52.522;13.622;2023-04-27T03:04:04;101274.72;;;5.37;69.06
78144;BME280;67394;52.522;13.622;2023-04-27T03:06:31;101277.16;;;5.34;68.84
78144;BME280;67394;52.522;13.622;2023-04-27T03:08:57;101275.66;;;5.41;68.39
78144;BME280;67394;52.522;13.622;2023-04-27T03:11:23;101275.13;;;5.51;67.75
78144;BME280;67394;52.522;13.622;2023-04-27T03:13:49;101277.25;;;5.37;68.98
78144;BME280;67394;52.522;13.622;2023-04-27T03:16:16;101278.19;;;5.41;69.10
78144;BME280;67394;52.522;13.622;2023-04-27T03:18:42;101281.59;;;5.40;67.91
78144;BME280;67394;52.522;13.622;2023-04-27T03:21:09;101278.19;;;5.39;68.45
78144;BME280;67394;52.522;13.622;2023-04-27T03:23:36;101283.09;;;5.35;69.02
78144;BME280;67394;52.522;13.622;2023-04-27T03:26:09;101281.25;;;5.29;69.34
78144;BME280;67394;52.522;13.622;2023-04-27T03:28:37;101286.19;;;5.25;68.56
78144;BME280;67394;52.522;13.622;2023-04-27T03:31:04;101287.00;;;5.24;69.48
78144;BME280;67394;52.522;13.622;2023-04-27T03:33:31;101288.66;;;5.23;69.79
78144;BME280;67394;52.522;13.622;2023-04-27T03:35:58;101287.00;;;5.24;69.34
78144;BME280;67394;52.522;13.622;2023-04-27T03:38:25;101289.53;;;5.24;69.78
78144;BME280;67394;52.522;13.622;2023-04-27T03:40:52;101295.59;;;5.27;69.17
78144;BME280;67394;52.522;13.622;2023-04-27T03:43:19;101292.25;;;5.30;68.80
78144;BME280;67394;52.522;13.622;2023-04-27T03:45:46;101302.41;;;5.28;67.96
78144;BME280;67394;52.522;13.622;2023-04-27T03:48:13;101290.44;;;5.26;68.38
78144;BME280;67394;52.522;13.622;2023-04-27T03:50:40;101291.09;;;5.19;68.49
78144;BME280;67394;52.522;13.622;2023-04-27T03:53:07;101297.75;;;5.15;69.89
78144;BME280;67394;52.522;13.622;2023-04-27T03:55:38;101295.97;;;5.12;69.24
78144;BME280;67394;52.522;13.622;2023-04-27T03:58:05;101306.22;;;5.15;68.33
78144;BME280;67394;52.522;13.622;2023-04-27T04:00:35;101303.78;;;5.19;68.17
78144;BME280;67394;52.522;13.622;2023-04-27T04:03:03;101306.94;;;5.11;69.13
78144;BME280;67394;52.522;13.622;2023-04-27T04:05:29;101312.97;;;5.15;68.52
78144;BME280;67394;52.522;13.622;2023-04-27T04:07:56;101307.03;;;5.14;68.72
78144;BME280;67394;52.522;13.622;2023-04-27T04:10:23;101307.09;;;5.16;69.29
78144;BME280;67394;52.522;13.622;2023-04-27T04:12:51;101315.81;;;5.24;68.56
78144;BME280;67394;52.522;13.622;2023-04-27T04:15:17;101316.69;;;5.25;67.45
78144;BME280;67394;52.522;13.622;2023-04-27T04:17:44;101319.03;;;5.19;68.89
78144;BME280;67394;52.522;13.622;2023-04-27T04:20:11;101324.31;;;5.25;68.71
78144;BME280;67394;52.522;13.622;2023-04-27T04:22:37;101329.34;;;5.23;68.08
78144;BME280;67394;52.522;13.622;2023-04-27T04:25:04;101327.03;;;5.31;67.50
78144;BME280;67394;52.522;13.622;2023-04-27T04:27:31;101331.22;;;5.29;68.62
78144;BME280;67394;52.522;13.622;2023-04-27T04:29:58;101338.09;;;5.33;68.18
78144;BME280;67394;52.522;13.622;2023-04-27T04:32:25;101328.75;;;5.32;67.65
78144;BME280;67394;52.522;13.622;2023-04-27T04:34:51;101334.69;;;5.32;67.57
78144;BME280;67394;52.522;13.622;2023-04-27T04:37:17;101338.28;;;5.37;67.52
78144;BME280;67394;52.522;13.622;2023-04-27T04:39:44;101338.75;;;5.26;68.79
78144;BME280;67394;52.522;13.622;2023-04-27T04:42:10;101341.16;;;5.23;68.24
78144;BME280;67394;52.522;13.622;2023-04-27T04:44:36;101344.75;;;5.28;70.08
78144;BME280;67394;52.522;13.622;2023-04-27T04:47:03;101344.06;;;5.33;68.94
78144;BME280;67394;52.522;13.622;2023-04-27T04:49:30;101333.25;;;5.39;67.85
78144;BME280;67394;52.522;13.622;2023-04-27T04:51:56;101340.88;;;5.39;68.43
78144;BME280;67394;52.522;13.622;2023-04-27T04:54:23;101343.53;;;5.43;68.24
78144;BME280;67394;52.522;13.622;2023-04-27T04:56:49;101342.88;;;5.49;68.41
78144;BME280;67394;52.522;13.622;2023-04-27T04:59:16;101343.81;;;5.52;67.74
78144;BME280;67394;52.522;13.622;2023-04-27T05:01:42;101353.28;;;5.57;67.77
78144;BME280;67394;52.522;13.622;2023-04-27T05:04:08;101355.75;;;5.55;67.94
78144;BME280;67394;52.522;13.622;2023-04-27T05:06:35;101356.00;;;5.63;67.02
78144;BME280;67394;52.522;13.622;2023-04-27T05:09:01;101362.84;;;5.65;68.16
78144;BME280;67394;52.522;13.622;2023-04-27T05:11:28;101359.66;;;5.71;66.16
78144;BME280;67394;52.522;13.622;2023-04-27T05:13:54;101361.19;;;5.66;66.21
78144;BME280;67394;52.522;13.622;2023-04-27T05:16:20;101357.59;;;5.59;67.02
78144;BME280;67394;52.522;13.622;2023-04-27T05:18:47;101362.84;;;5.65;67.84
78144;BME280;67394;52.522;13.622;2023-04-27T05:21:16;101359.50;;;5.66;66.92
78144;BME280;67394;52.522;13.622;2023-04-27T05:23:43;101359.69;;;5.72;66.49
78144;BME280;67394;52.522;13.622;2023-04-27T05:26:16;101362.31;;;5.75;66.45
78144;BME280;67394;52.522;13.622;2023-04-27T05:28:43;101361.78;;;5.85;65.71
78144;BME280;67394;52.522;13.622;2023-04-27T05:31:10;101359.28;;;5.87;66.55
78144;BME280;67394;52.522;13.622;2023-04-27T05:33:36;101362.00;;;5.92;67.52
78144;BME280;67394;52.522;13.622;2023-04-27T05:36:03;101363.66;;;5.90;66.05
78144;BME280;67394;52.522;13.622;2023-04-27T05:38:29;101370.53;;;5.94;66.15
78144;BME280;67394;52.522;13.622;2023-04-27T05:40:56;101364.69;;;5.96;66.32
78144;BME280;67394;52.522;13.622;2023-04-27T05:43:23;101364.63;;;5.93;66.58
78144;BME280;67394;52.522;13.622;2023-04-27T05:45:50;101370.72;;;6.00;67.14
78144;BME280;67394;52.522;13.622;2023-04-27T05:48:17;101365.75;;;6.04;65.85
78144;BME280;67394;52.522;13.622;2023-04-27T05:50:44;101371.81;;;6.08;66.69
78144;BME280;67394;52.522;13.622;2023-04-27T05:53:10;101370.41;;;6.17;65.90
78144;BME280;67394;52.522;13.622;2023-04-27T05:55:37;101372.88;;;6.16;65.67
78144;BME280;67394;52.522;13.622;2023-04-27T05:58:03;101369.53;;;6.17;65.55
78144;BME280;67394;52.522;13.622;2023-04-27T06:00:34;101370.53;;;6.22;65.45
78144;BME280;67394;52.522;13.622;2023-04-27T06:03:00;101374.88;;;6.26;65.13
78144;BME280;67394;52.522;13.622;2023-04-27T06:05:27;101370.13;;;6.38;65.22
78144;BME280;67394;52.522;13.622;2023-04-27T06:07:53;101371.06;;;6.40;65.20
78144;BME280;67394;52.522;13.622;2023-04-27T06:10:20;101378.84;;;6.45;64.84
78144;BME280;67394;52.522;13.622;2023-04-27T06:12:46;101386.53;;;6.48;65.31
78144;BME280;67394;52.522;13.622;2023-04-27T06:15:12;101382.41;;;6.51;65.12
78144;BME280;67394;52.522;13.622;2023-04-27T06:17:39;101382.34;;;6.50;64.54
78144;BME280;67394;52.522;13.622;2023-04-27T06:20:06;101386.88;;;6.60;65.27
78144;BME280;67394;52.522;13.622;2023-04-27T06:22:33;101392.78;;;6.59;64.91
78144;BME280;67394;52.522;13.622;2023-04-27T06:24:59;101384.78;;;6.45;64.43
78144;BME280;67394;52.522;13.622;2023-04-27T06:27:25;101386.47;;;6.46;64.20
78144;BME280;67394;52.522;13.622;2023-04-27T06:29:52;101398.69;;;6.58;64.12
78144;BME280;67394;52.522;13.622;2023-04-27T06:32:18;101393.06;;;6.70;63.38
78144;BME280;67394;52.522;13.622;2023-04-27T06:34:46;101396.19;;;6.91;63.15
78144;BME280;67394;52.522;13.622;2023-04-27T06:37:12;101394.88;;;7.05;64.74
78144;BME280;67394;52.522;13.622;2023-04-27T06:39:38;101384.09;;;7.15;63.20
78144;BME280;67394;52.522;13.622;2023-04-27T06:42:05;101389.25;;;7.17;63.46
78144;BME280;67394;52.522;13.622;2023-04-27T06:44:31;101392.59;;;7.16;63.04
78144;BME280;67394;52.522;13.622;2023-04-27T06:46:57;101387.50;;;7.16;59.54
78144;BME280;67394;52.522;13.622;2023-04-27T06:49:24;101396.03;;;7.16;60.19
78144;BME280;67394;52.522;13.622;2023-04-27T06:51:50;101386.78;;;7.21;59.62
78144;BME280;67394;52.522;13.622;2023-04-27T06:54:16;101395.34;;;7.23;60.14
78144;BME280;67394;52.522;13.622;2023-04-27T06:56:43;101402.38;;;6.99;59.72
78144;BME280;67394;52.522;13.622;2023-04-27T06:59:09;101402.78;;;6.83;59.82
78144;BME280;67394;52.522;13.622;2023-04-27T07:01:36;101397.19;;;6.96;59.88
78144;BME280;67394;52.522;13.622;2023-04-27T07:04:03;101394.16;;;7.11;60.49
78144;BME280;67394;52.522;13.622;2023-04-27T07:06:30;101402.94;;;7.20;59.51
78144;BME280;67394;52.522;13.622;2023-04-27T07:08:57;101396.03;;;7.16;57.84
78144;BME280;67394;52.522;13.622;2023-04-27T07:11:23;101402.09;;;7.21;59.12
78144;BME280;67394;52.522;13.622;2023-04-27T07:13:50;101401.56;;;7.34;58.42
78144;BME280;67394;52.522;13.622;2023-04-27T07:16:16;101404.47;;;7.48;57.61
78144;BME280;67394;52.522;13.622;2023-04-27T07:18:43;101406.84;;;7.41;57.49
78144;BME280;67394;52.522;13.622;2023-04-27T07:21:09;101406.88;;;7.44;57.13
78144;BME280;67394;52.522;13.622;2023-04-27T07:23:36;101405.13;;;7.40;57.53
78144;BME280;67394;52.522;13.622;2023-04-27T07:26:02;101399.63;;;7.59;56.63
78144;BME280;67394;52.522;13.622;2023-04-27T07:28:28;101403.03;;;7.59;56.73
78144;BME280;67394;52.522;13.622;2023-04-27T07:30:55;101399.25;;;7.80;56.33
78144;BME280;67394;52.522;13.622;2023-04-27T07:33:21;101394.59;;;7.99;56.29
78144;BME280;67394;52.522;13.622;2023-04-27T07:35:47;101390.88;;;8.24;56.13
78144;BME280;67394;52.522;13.622;2023-04-27T07:38:14;101399.28;;;8.20;55.48
78144;BME280;67394;52.522;13.622;2023-04-27T07:40:40;101401.97;;;8.25;54.05
78144;BME280;67394;52.522;13.622;2023-04-27T07:43:09;101404.50;;;8.25;54.40
78144;BME280;67394;52.522;13.622;2023-04-27T07:45:36;101404.50;;;8.25;53.34
78144;BME280;67394;52.522;13.622;2023-04-27T07:48:02;101406.38;;;8.32;53.45
78144;BME280;67394;52.522;13.622;2023-04-27T07:50:30;101406.72;;;8.09;54.01
78144;BME280;67394;52.522;13.622;2023-04-27T07:52:56;101414.34;;;8.08;54.09
78144;BME280;67394;52.522;13.622;2023-04-27T07:55:23;101406.66;;;8.06;53.94
78144;BME280;67394;52.522;13.622;2023-04-27T07:57:52;101413.28;;;8.36;54.86
78144;BME280;67394;52.522;13.622;2023-04-27T08:00:19;101403.53;;;8.60;53.84
78144;BME280;67394;52.522;13.622;2023-04-27T08:02:45;101415.06;;;8.84;52.00
78144;BME280;67394;52.522;13.622;2023-04-27T08:05:12;101415.75;;;8.73;52.15
78144;BME280;67394;52.522;13.622;2023-04-27T08:07:39;101410.22;;;8.97;53.05
78144;BME280;67394;52.522;13.622;2023-04-27T08:10:10;101403.09;;;9.28;53.44
78144;BME280;67394;52.522;13.622;2023-04-27T08:12:36;101407.28;;;9.24;51.73
78144;BME280;67394;52.522;13.622;2023-04-27T08:15:04;101415.25;;;8.93;51.42
78144;BME280;67394;52.522;13.622;2023-04-27T08:17:31;101407.91;;;8.64;51.76
78144;BME280;67394;52.522;13.622;2023-04-27T08:19:57;101414.84;;;8.71;52.98
78144;BME280;67394;52.522;13.622;2023-04-27T08:22:23;101412.59;;;8.87;51.91
78144;BME280;67394;52.522;13.622;2023-04-27T08:24:50;101404.06;;;8.86;52.78
78144;BME280;67394;52.522;13.622;2023-04-27T08:27:16;101411.75;;;8.88;52.33
78144;BME280;67394;52.522;13.622;2023-04-27T08:29:46;101417.47;;;8.74;50.63
78144;BME280;67394;52.522;13.622;2023-04-27T08:32:13;101418.97;;;8.65;50.62
78144;BME280;67394;52.522;13.622;2023-04-27T08:34:40;101427.38;;;8.59;49.52
78144;BME280;67394;52.522;13.622;2023-04-27T08:37:07;101426.41;;;8.96;50.16
78144;BME280;67394;52.522;13.622;2023-04-27T08:39:33;101425.44;;;8.90;49.24
78144;BME280;67394;52.522;13.622;2023-04-27T08:41:59;101423.47;;;9.22;49.13
78144;BME280;67394;52.522;13.622;2023-04-27T08:44:26;101424.28;;;9.22;50.56
78144;BME280;67394;52.522;13.622;2023-04-27T08:46:52;101417.72;;;9.36;50.66
78144;BME280;67394;52.522;13.622;2023-04-27T08:49:19;101427.72;;;9.23;48.05
78144;BME280;67394;52.522;13.622;2023-04-27T08:51:45;101419.16;;;9.19;49.67
78144;BME280;67394;52.522;13.622;2023-04-27T08:54:12;101422.28;;;9.04;48.00
78144;BME280;67394;52.522;13.622;2023-04-27T08:56:38;101431.78;;;9.10;49.73
78144;BME280;67394;52.522;13.622;2023-04-27T08:59:12;101419.84;;;9.12;49.47
78144;BME280;67394;52.522;13.622;2023-04-27T09:01:47;101427.34;;;9.00;50.24
78144;BME280;67394;52.522;13.622;2023-04-27T09:04:14;101430.25;;;8.74;50.33
78144;BME280;67394;52.522;13.622;2023-04-27T09:06:41;101421.69;;;8.72;51.15
78144;BME280;67394;52.522;13.622;2023-04-27T09:09:07;101432.84;;;8.76;52.70
78144;BME280;67394;52.522;13.622;2023-04-27T09:11:36;101429.94;;;8.59;52.01
78144;BME280;67394;52.522;13.622;2023-04-27T09:14:18;101431.06;;;8.73;52.45
78144;BME280;67394;52.522;13.622;2023-04-27T09:16:55;101428.19;;;9.00;50.56
78144;BME280;67394;52.522;13.622;2023-04-27T09:19:26;101424.94;;;9.09;49.26
78144;BME280;67394;52.522;13.622;2023-04-27T09:22:07;101416.97;;;9.42;48.66
78144;BME280;67394;52.522;13.622;2023-04-27T09:24:34;101422.31;;;9.55;49.84
78144;BME280;67394;52.522;13.622;2023-04-27T09:27:00;101421.34;;;9.49;49.85
78144;BME280;67394;52.522;13.622;2023-04-27T09:29:37;101419.34;;;9.30;49.67
78144;BME280;67394;52.522;13.622;2023-04-27T09:32:17;101418.13;;;9.09;48.84
78144;BME280;67394;52.522;13.622;2023-04-27T09:34:44;101413.94;;;9.14;50.08
78144;BME280;67394;52.522;13.622;2023-04-27T09:37:10;101414.06;;;9.22;49.26
78144;BME280;67394;52.522;13.622;2023-04-27T09:39:37;101418.38;;;9.25;48.51
78144;BME280;67394;52.522;13.622;2023-04-27T09:42:04;101410.09;;;9.38;48.84
78144;BME280;67394;52.522;13.622;2023-04-27T09:44:31;101412.81;;;9.48;48.38
78144;BME280;67394;52.522;13.622;2023-04-27T09:46:58;101413.22;;;9.22;49.22
78144;BME280;67394;52.522;13.622;2023-04-27T09:49:26;101411.41;;;9.16;48.03
78144;BME280;67394;52.522;13.622;2023-04-27T09:51:54;101415.03;;;9.27;50.18
78144;BME280;67394;52.522;13.622;2023-04-27T09:54:24;101411.94;;;9.46;48.72
78144;BME280;67394;52.522;13.622;2023-04-27T09:57:16;101400.66;;;9.35;49.17
78144;BME280;67394;52.522;13.622;2023-04-27T10:02:25;101410.88;;;9.35;47.34
78144;BME280;67394;52.522;13.622;2023-04-27T10:05:29;101409.84;;;9.24;47.89
78144;BME280;67394;52.522;13.622;2023-04-27T10:08:02;101403.16;;;9.31;49.78
78144;BME280;67394;52.522;13.622;2023-04-27T10:10:29;101402.00;;;9.15;48.37
78144;BME280;67394;52.522;13.622;2023-04-27T10:12:57;101400.97;;;9.04;49.23
78144;BME280;67394;52.522;13.622;2023-04-27T10:15:26;101395.50;;;9.32;50.09
78144;BME280;67394;52.522;13.622;2023-04-27T10:17:54;101389.06;;;9.57;46.99
78144;BME280;67394;52.522;13.622;2023-04-27T10:20:31;101399.06;;;9.99;47.06
78144;BME280;67394;52.522;13.622;2023-04-27T10:22:58;101402.44;;;9.97;45.78
78144;BME280;67394;52.522;13.622;2023-04-27T10:27:53;101393.22;;;10.06;47.00
78144;BME280;67394;52.522;13.622;2023-04-27T10:30:24;101394.91;;;10.07;45.96
78144;BME280;67394;52.522;13.622;2023-04-27T10:32:56;101391.72;;;10.22;45.90
78144;BME280;67394;52.522;13.622;2023-04-27T10:35:34;101389.47;;;10.46;47.62
78144;BME280;67394;52.522;13.622;2023-04-27T10:38:20;101396.84;;;10.22;45.27
78144;BME280;67394;52.522;13.622;2023-04-27T10:40:55;101397.25;;;10.54;45.04
78144;BME280;67394;52.522;13.622;2023-04-27T10:43:26;101384.59;;;10.68;44.72
78144;BME280;67394;52.522;13.622;2023-04-27T10:45:53;101392.28;;;10.66;43.79
78144;BME280;67394;52.522;13.622;2023-04-27T10:48:20;101384.19;;;11.11;40.63
78144;BME280;67394;52.522;13.622;2023-04-27T10:50:49;101379.22;;;11.31;40.67
78144;BME280;67394;52.522;13.622;2023-04-27T10:53:16;101379.44;;;11.61;40.10
78144;BME280;67394;52.522;13.622;2023-04-27T10:55:42;101376.38;;;12.20;41.39
78144;BME280;67394;52.522;13.622;2023-04-27T10:58:09;101374.84;;;12.69;41.38
78144;BME280;67394;52.522;13.622;2023-04-27T11:00:38;101371.19;;;12.11;38.77
78144;BME280;67394;52.522;13.622;2023-04-27T11:03:15;101376.28;;;12.00;42.00
78144;BME280;67394;52.522;13.622;2023-04-27T11:05:44;101368.56;;;12.00;39.79
78144;BME280;67394;52.522;13.622;2023-04-27T11:08:13;101383.63;;;11.49;38.90
78144;BME280;67394;52.522;13.622;2023-04-27T11:10:46;101382.56;;;11.25;41.10
78144;BME280;67394;52.522;13.622;2023-04-27T11:13:14;101376.59;;;11.26;40.98
78144;BME280;67394;52.522;13.622;2023-04-27T11:16:03;101381.69;;;11.23;39.41
78144;BME280;67394;52.522;13.622;2023-04-27T11:18:30;101397.50;;;10.75;39.77
78144;BME280;67394;52.522;13.622;2023-04-27T11:21:08;101382.59;;;10.44;40.03
78144;BME280;67394;52.522;13.622;2023-04-27T11:23:35;101390.47;;;10.60;40.97
78144;BME280;67394;52.522;13.622;2023-04-27T11:28:37;101382.75;;;11.44;40.28
78144;BME280;67394;52.522;13.622;2023-04-27T11:31:04;101391.47;;;10.73;40.93
78144;BME280;67394;52.522;13.622;2023-04-27T11:33:31;101388.06;;;10.73;42.04
78144;BME280;67394;52.522;13.622;2023-04-27T11:35:58;101378.78;;;10.85;41.09
78144;BME280;67394;52.522;13.622;2023-04-27T11:38:25;101383.06;;;10.85;42.50
78144;BME280;67394;52.522;13.622;2023-04-27T11:41:00;101391.44;;;10.69;40.49
78144;BME280;67394;52.522;13.622;2023-04-27T11:43:27;101409.97;;;10.45;42.51
78144;BME280;67394;52.522;13.622;2023-04-27T11:45:54;101402.28;;;10.45;42.63
78144;BME280;67394;52.522;13.622;2023-04-27T11:48:26;101404.03;;;10.47;41.73
78144;BME280;67394;52.522;13.622;2023-04-27T11:50:52;101397.03;;;10.36;42.21
78144;BME280;67394;52.522;13.622;2023-04-27T11:53:31;101410.66;;;10.32;43.95
78144;BME280;67394;52.522;13.622;2023-04-27T11:56:02;101411.44;;;10.26;42.45
78144;BME280;67394;52.522;13.622;2023-04-27T11:58:32;101416.13;;;9.96;42.74
78144;BME280;67394;52.522;13.622;2023-04-27T12:00:59;101418.53;;;9.85;43.80
78144;BME280;67394;52.522;13.622;2023-04-27T12:03:27;101418.97;;;10.17;43.12
78144;BME280;67394;52.522;13.622;2023-04-27T12:05:53;101424.94;;;10.16;43.02
78144;BME280;67394;52.522;13.622;2023-04-27T12:08:20;101415.72;;;10.28;42.05
78144;BME280;67394;52.522;13.622;2023-04-27T12:10:46;101411.69;;;10.46;42.94
78144;BME280;67394;52.522;13.622;2023-04-27T12:13:13;101416.97;;;10.58;42.59
78144;BME280;67394;52.522;13.622;2023-04-27T12:15:40;101426.41;;;10.63;42.19
78144;BME280;67394;52.522;13.622;2023-04-27T12:18:07;101420.25;;;10.46;41.00
78144;BME280;67394;52.522;13.622;2023-04-27T12:20:34;101421.81;;;10.35;41.28
78144;BME280;67394;52.522;13.622;2023-04-27T12:23:01;101427.91;;;10.45;41.19
78144;BME280;67394;52.522;13.622;2023-04-27T12:25:27;101425.47;;;10.55;41.27
78144;BME280;67394;52.522;13.622;2023-04-27T12:27:54;101416.94;;;10.56;39.68
78144;BME280;67394;52.522;13.622;2023-04-27T12:30:22;101429.88;;;10.67;39.95
78144;BME280;67394;52.522;13.622;2023-04-27T12:32:49;101424.09;;;10.85;40.80
78144;BME280;67394;52.522;13.622;2023-04-27T12:35:15;101424.81;;;10.73;38.97
78144;BME280;67394;52.522;13.622;2023-04-27T12:37:42;101413.84;;;10.86;41.28
78144;BME280;67394;52.522;13.622;2023-04-27T12:40:08;101408.09;;;11.09;40.83
78144;BME280;67394;52.522;13.622;2023-04-27T12:42:35;101412.31;;;11.04;40.20
78144;BME280;67394;52.522;13.622;2023-04-27T12:45:01;101419.06;;;10.95;39.55
78144;BME280;67394;52.522;13.622;2023-04-27T12:47:28;101420.13;;;11.16;40.79
78144;BME280;67394;52.522;13.622;2023-04-27T12:50:14;101420.25;;;11.28;40.40
78144;BME280;67394;52.522;13.622;2023-04-27T12:52:40;101417.47;;;11.05;40.39
78144;BME280;67394;52.522;13.622;2023-04-27T12:55:07;101429.19;;;10.83;40.57
78144;BME280;67394;52.522;13.622;2023-04-27T12:57:50;101420.09;;;11.10;40.73